createdAt,value
2023-04-27T00:01:06.502Z,10.79
2023-04-27T00:03:39.970Z,10.74
2023-04-27T00:06:12.290Z,10.73
2023-04-27T00:08:45.230Z,10.72
2023-04-27T00:11:17.148Z,10.67
2023-04-27T00:13:49.612Z,10.58
2023-04-27T00:16:21.611Z,10.55
2023-04-27T00:18:54.233Z,10.44
2023-04-27T00:21:27.003Z,10.43
2023-04-27T00:23:59.421Z,10.44
2023-04-27T00:26:31.769Z,10.48
2023-04-27T00:29:05.152Z,10.35
2023-04-27T00:31:37.134Z,10.39
2023-04-27T00:34:09.966Z,10.43
2023-04-27T00:36:41.950Z,10.25
2023-04-27T00:39:14.668Z,10.23
2023-04-27T00:41:46.793Z,10.38
2023-04-27T00:44:26.489Z,10.42
2023-04-27T00:46:58.949Z,10.39
2023-04-27T00:49:31.797Z,10.44
2023-04-27T00:52:04.141Z,10.31
2023-04-27T00:54:36.589Z,10.21
2023-04-27T00:57:09.054Z,10.25
2023-04-27T00:59:41.630Z,10.24
2023-04-27T01:02:14.086Z,10.24
2023-04-27T01:04:46.557Z,10.25
2023-04-27T01:07:18.896Z,10.37
2023-04-27T01:09:51.521Z,10.29
2023-04-27T01:12:23.526Z,10.22
2023-04-27T01:14:56.454Z,10.27
2023-04-27T01:17:28.399Z,10.05
2023-04-27T01:20:02.649Z,10.26
2023-04-27T01:22:34.598Z,10.16
2023-04-27T01:25:08.332Z,10.11
2023-04-27T01:27:40.653Z,10.26
2023-04-27T01:30:13.703Z,10.19
2023-04-27T01:32:46.158Z,10.24
2023-04-27T01:35:18.676Z,10.11
2023-04-27T01:37:51.408Z,10.07
2023-04-27T01:40:23.637Z,10.19
2023-04-27T01:42:56.090Z,10.07
2023-04-27T01:45:28.507Z,10.22
2023-04-27T01:48:01.271Z,10.33
2023-04-27T01:50:34.186Z,10.27
2023-04-27T01:53:06.151Z,10.14
2023-04-27T01:55:38.879Z,10.02
2023-04-27T01:58:10.820Z,10.06
2023-04-27T02:00:45.815Z,10.17
2023-04-27T02:03:18.200Z,10.25
2023-04-27T02:05:50.795Z,10.19
2023-04-27T02:08:24.829Z,10.08
2023-04-27T02:10:58.017Z,10.21
2023-04-27T02:13:29.882Z,10.30
2023-04-27T02:16:04.641Z,10.28
2023-04-27T02:18:37.034Z,10.27
2023-04-27T02:21:15.065Z,10.32
2023-04-27T02:23:47.762Z,10.31
2023-04-27T02:26:22.489Z,10.37
2023-04-27T02:28:54.814Z,10.21
2023-04-27T02:31:27.963Z,10.27
2023-04-27T02:33:59.883Z,10.23
2023-04-27T02:36:32.763Z,10.14
2023-04-27T02:39:05.640Z,10.12
2023-04-27T02:41:37.664Z,10.20
2023-04-27T02:44:11.057Z,10.32
2023-04-27T02:46:43.001Z,10.36
2023-04-27T02:49:17.147Z,10.35
2023-04-27T02:51:49.052Z,10.38
2023-04-27T02:54:22.565Z,10.38
2023-04-27T02:56:55.036Z,10.35
2023-04-27T02:59:48.698Z,10.33
2023-04-27T03:02:21.215Z,10.31
2023-04-27T03:04:54.916Z,10.48
2023-04-27T03:07:27.672Z,10.36
2023-04-27T03:10:18.417Z,10.32
2023-04-27T03:12:51.376Z,10.06
2023-04-27T03:15:23.243Z,10.12
2023-04-27T03:17:56.394Z,10.26
2023-04-27T03:20:28.778Z,10.20
2023-04-27T03:23:01.756Z,10.16
2023-04-27T03:25:34.528Z,10.33
2023-04-27T03:28:06.670Z,10.34
2023-04-27T03:30:41.621Z,10.43
2023-04-27T03:33:14.643Z,10.33
2023-04-27T03:35:56.539Z,10.27
2023-04-27T03:38:29.062Z,10.26
2023-04-27T03:41:01.965Z,10.20
2023-04-27T03:43:34.297Z,10.38
2023-04-27T03:46:08.973Z,10.46
2023-04-27T03:48:43.895Z,10.49
2023-04-27T03:51:16.728Z,10.49
2023-04-27T03:53:50.988Z,10.33
2023-04-27T03:56:24.182Z,10.25
2023-04-27T03:58:56.849Z,10.31
2023-04-27T04:01:37.846Z,10.31
2023-04-27T04:04:10.366Z,10.19
2023-04-27T04:06:42.813Z,10.20
2023-04-27T04:09:17.130Z,10.11
2023-04-27T04:11:49.877Z,10.08
2023-04-27T04:14:22.537Z,10.07
2023-04-27T04:16:55.694Z,10.07
2023-04-27T04:19:28.021Z,11.72
2023-04-27T04:22:00.429Z,10.42
2023-04-27T04:24:32.353Z,10.22
2023-04-27T04:27:06.193Z,10.22
2023-04-27T04:29:39.865Z,10.05
2023-04-27T04:32:17.980Z,10.05
2023-04-27T04:34:53.072Z,9.88
2023-04-27T04:37:27.703Z,9.91
2023-04-27T04:40:00.174Z,9.87
2023-04-27T04:42:37.630Z,9.94
2023-04-27T04:45:10.874Z,10.08
2023-04-27T04:48:03.127Z,10.17
2023-04-27T04:50:35.060Z,10.15
2023-04-27T04:53:08.126Z,12.65
2023-04-27T04:55:40.990Z,10.97
2023-04-27T04:58:15.996Z,10.73
2023-04-27T05:00:48.285Z,10.69
2023-04-27T05:03:21.730Z,10.59
2023-04-27T05:05:53.794Z,10.47
2023-04-27T05:08:27.501Z,10.56
2023-04-27T05:10:59.815Z,10.48
2023-04-27T05:13:32.732Z,10.23
2023-04-27T05:16:08.466Z,10.17
2023-04-27T05:18:42.159Z,10.11
2023-04-27T05:21:20.683Z,10.24
2023-04-27T05:23:53.481Z,10.32
2023-04-27T05:26:25.379Z,10.22
2023-04-27T05:28:58.112Z,10.15
2023-04-27T05:31:30.102Z,10.25
2023-04-27T05:34:03.139Z,10.60
2023-04-27T05:36:36.001Z,10.81
2023-04-27T05:39:10.464Z,10.84
2023-04-27T05:41:42.439Z,11.02
2023-04-27T05:44:16.216Z,11.40
2023-04-27T05:46:48.082Z,11.05
2023-04-27T05:49:21.094Z,11.17
2023-04-27T05:51:53.573Z,11.17
2023-04-27T05:54:28.193Z,11.39
2023-04-27T05:57:00.146Z,11.44
2023-04-27T06:02:26.777Z,11.53
2023-04-27T06:04:59.653Z,11.34
2023-04-27T06:07:34.683Z,11.81
2023-04-27T06:10:08.245Z,14.92
2023-04-27T06:12:40.816Z,15.36
2023-04-27T06:15:13.805Z,15.59
2023-04-27T06:17:46.959Z,15.66
2023-04-27T06:20:19.430Z,14.09
2023-04-27T06:22:53.920Z,13.45
2023-04-27T06:25:29.372Z,13.06
2023-04-27T06:30:56.025Z,12.88
2023-04-27T06:33:28.786Z,13.20
2023-04-27T06:36:02.720Z,13.07
2023-04-27T06:38:34.695Z,13.16
2023-04-27T06:41:08.518Z,13.41
2023-04-27T06:43:40.482Z,13.69
2023-04-27T06:46:15.354Z,13.45
2023-04-27T06:48:48.845Z,13.27
2023-04-27T06:51:21.272Z,13.54
2023-04-27T06:53:56.663Z,13.66
2023-04-27T06:56:29.004Z,13.72
2023-04-27T06:59:03.571Z,13.61
2023-04-27T07:01:36.367Z,14.31
2023-04-27T07:04:10.523Z,13.98
2023-04-27T07:06:45.533Z,13.80
2023-04-27T07:09:26.888Z,13.70
2023-04-27T07:12:02.995Z,13.79
2023-04-27T07:14:55.055Z,13.82
2023-04-27T07:17:27.038Z,13.78
2023-04-27T07:20:02.347Z,14.06
2023-04-27T07:22:34.679Z,14.39
2023-04-27T07:25:09.864Z,14.92
2023-04-27T07:27:41.772Z,15.55
2023-04-27T07:30:16.796Z,16.14
2023-04-27T07:32:54.270Z,15.93
2023-04-27T07:35:27.839Z,16.23
2023-04-27T07:38:02.696Z,16.59
2023-04-27T07:40:36.984Z,17.85
2023-04-27T07:43:09.498Z,18.37
2023-04-27T07:45:43.785Z,18.89
2023-04-27T07:48:16.171Z,19.94
2023-04-27T07:50:49.240Z,20.00
2023-04-27T07:53:21.390Z,19.42
2023-04-27T07:55:54.376Z,17.91
2023-04-27T08:01:21.605Z,18.80
2023-04-27T08:03:56.683Z,18.21
2023-04-27T08:06:29.872Z,18.15
2023-04-27T08:09:05.038Z,20.04
2023-04-27T08:11:37.936Z,19.81
2023-04-27T08:14:13.571Z,19.01
2023-04-27T08:16:46.593Z,18.58
2023-04-27T08:19:18.792Z,17.63
2023-04-27T08:21:52.472Z,17.47
2023-04-27T08:24:24.941Z,17.14
2023-04-27T08:26:58.365Z,17.97
2023-04-27T08:29:30.642Z,18.44
2023-04-27T08:32:25.343Z,18.99
2023-04-27T08:34:57.320Z,19.79
2023-04-27T08:37:31.414Z,19.62
2023-04-27T08:40:07.451Z,19.15
2023-04-27T08:42:43.425Z,19.33
2023-04-27T08:45:15.750Z,20.57
2023-04-27T08:47:52.886Z,20.61
2023-04-27T08:50:25.713Z,20.47
2023-04-27T08:53:24.297Z,21.29
2023-04-27T08:55:57.768Z,21.27
2023-04-27T08:58:38.694Z,21.07
2023-04-27T09:01:10.803Z,21.92
2023-04-27T09:03:47.260Z,21.03
2023-04-27T09:06:31.816Z,20.78
2023-04-27T09:09:26.550Z,21.55
2023-04-27T09:11:58.713Z,21.85
2023-04-27T09:14:35.962Z,21.64
2023-04-27T09:17:07.963Z,23.05
2023-04-27T09:20:13.911Z,24.10
2023-04-27T09:22:48.881Z,22.32
2023-04-27T09:28:51.863Z,21.95
2023-04-27T09:31:37.505Z,22.25
2023-04-27T09:34:11.972Z,21.73
2023-04-27T09:37:06.050Z,21.76
2023-04-27T09:39:39.422Z,21.02
2023-04-27T09:42:13.069Z,22.00
2023-04-27T09:44:46.326Z,23.85
2023-04-27T09:47:18.744Z,23.07
2023-04-27T09:49:52.514Z,22.67
2023-04-27T09:52:42.857Z,23.37
2023-04-27T09:55:33.571Z,22.37
2023-04-27T09:58:37.686Z,21.72
2023-04-27T10:01:27.398Z,23.54
2023-04-27T10:04:47.015Z,24.29
2023-04-27T10:07:19.549Z,24.12
2023-04-27T10:09:52.810Z,25.46
2023-04-27T10:12:34.607Z,25.85
2023-04-27T10:15:18.093Z,23.77
2023-04-27T10:17:58.734Z,23.41
2023-04-27T10:20:33.391Z,23.24
2023-04-27T10:23:06.341Z,25.13
2023-04-27T10:25:42.100Z,22.62
2023-04-27T10:28:23.472Z,23.07
2023-04-27T10:30:58.217Z,23.77
2023-04-27T10:33:30.303Z,22.75
2023-04-27T10:36:05.108Z,21.72
2023-04-27T10:38:42.450Z,21.20
2023-04-27T10:41:15.095Z,21.53
2023-04-27T10:43:48.944Z,21.54
2023-04-27T10:46:21.335Z,22.53
2023-04-27T10:48:54.171Z,22.13
2023-04-27T10:51:27.104Z,23.15
2023-04-27T10:54:02.849Z,23.74
2023-04-27T10:59:28.161Z,25.26
2023-04-27T11:02:02.570Z,23.25
2023-04-27T11:04:40.289Z,22.18
2023-04-27T11:07:28.078Z,22.78
2023-04-27T11:10:00.184Z,22.33
2023-04-27T11:12:33.405Z,22.16
2023-04-27T11:15:23.973Z,22.99
2023-04-27T11:18:06.372Z,24.38
2023-04-27T11:20:38.778Z,23.78
2023-04-27T11:23:11.212Z,23.74
2023-04-27T11:25:45.480Z,22.56
2023-04-27T11:28:21.932Z,23.94
2023-04-27T11:31:01.780Z,23.26
2023-04-27T11:33:35.823Z,23.74
2023-04-27T11:36:23.907Z,23.99
2023-04-27T11:39:00.050Z,23.22
2023-04-27T11:41:37.946Z,22.55
2023-04-27T11:44:11.305Z,22.22
2023-04-27T11:46:48.860Z,23.66
2023-04-27T11:49:20.907Z,24.29
2023-04-27T11:51:55.503Z,23.10
2023-04-27T11:54:29.760Z,23.08
2023-04-27T11:57:07.016Z,23.38
2023-04-27T11:59:38.981Z,22.43
2023-04-27T12:02:33.580Z,21.97
2023-04-27T12:05:07.498Z,22.21
2023-04-27T12:07:41.780Z,22.57
2023-04-27T12:10:14.370Z,21.44
2023-04-27T12:12:50.254Z,21.67
2023-04-27T12:15:22.596Z,21.59
2023-04-27T12:17:56.681Z,20.74
2023-04-27T12:20:29.441Z,21.42
2023-04-27T12:23:02.420Z,21.40
2023-04-27T12:25:37.663Z,20.69
2023-04-27T12:28:10.404Z,20.36
2023-04-27T12:33:37.232Z,20.73
2023-04-27T12:36:11.195Z,21.03
2023-04-27T12:38:43.815Z,21.87
2023-04-27T12:41:16.525Z,22.86
2023-04-27T12:43:49.405Z,22.67
2023-04-27T12:46:21.966Z,21.98
2023-04-27T12:48:56.971Z,22.04
2023-04-27T12:51:53.284Z,23.34
2023-04-27T12:54:26.250Z,23.51
2023-04-27T12:56:58.324Z,23.36
2023-04-27T12:59:31.659Z,23.63
2023-04-27T13:02:07.870Z,22.75
2023-04-27T13:04:41.489Z,22.87
2023-04-27T13:07:17.844Z,23.28
2023-04-27T13:09:50.161Z,22.78
2023-04-27T13:12:25.069Z,23.83
2023-04-27T13:14:57.328Z,23.69
2023-04-27T13:17:53.301Z,23.52
2023-04-27T13:23:18.875Z,23.19
2023-04-27T13:25:51.758Z,22.83
2023-04-27T13:28:24.149Z,21.25
2023-04-27T13:30:57.382Z,21.84
2023-04-27T13:33:32.295Z,21.73
2023-04-27T13:36:06.562Z,21.14
2023-04-27T13:38:39.383Z,21.11
2023-04-27T13:41:12.424Z,21.87
2023-04-27T13:43:47.743Z,21.82
2023-04-27T13:46:20.511Z,22.35
2023-04-27T13:48:53.775Z,22.17
2023-04-27T13:51:26.687Z,22.04
2023-04-27T13:53:59.818Z,22.00
2023-04-27T13:56:32.204Z,22.40
2023-04-27T13:59:05.659Z,21.99
2023-04-27T14:01:39.445Z,22.34
2023-04-27T14:04:11.923Z,21.59
2023-04-27T14:06:44.127Z,22.09
2023-04-27T14:09:17.150Z,21.97
2023-04-27T14:11:56.270Z,22.10
2023-04-27T14:14:30.372Z,22.45
2023-04-27T14:17:02.680Z,22.42
2023-04-27T14:19:38.980Z,22.07
2023-04-27T14:22:11.427Z,21.82
2023-04-27T14:24:43.954Z,21.69
2023-04-27T14:27:17.072Z,21.88
2023-04-27T14:29:49.567Z,22.17
2023-04-27T14:32:22.554Z,22.10
2023-04-27T14:34:55.011Z,22.65
2023-04-27T14:37:27.366Z,22.39
2023-04-27T14:40:01.290Z,21.41
2023-04-27T14:42:33.246Z,21.13
2023-04-27T14:45:07.073Z,21.06
2023-04-27T14:47:39.523Z,20.82
2023-04-27T14:50:12.074Z,20.85
2023-04-27T14:52:44.954Z,21.08
2023-04-27T14:55:18.425Z,21.30
2023-04-27T14:57:53.284Z,21.10
2023-04-27T15:00:26.228Z,21.21
2023-04-27T15:03:08.333Z,21.31
2023-04-27T15:05:41.751Z,21.49
2023-04-27T15:08:14.122Z,21.93
2023-04-27T15:10:46.114Z,21.50
2023-04-27T15:13:18.462Z,21.25
2023-04-27T15:15:59.460Z,21.38
2023-04-27T15:18:32.455Z,21.26
2023-04-27T15:21:04.565Z,21.40
2023-04-27T15:23:38.638Z,21.21
2023-04-27T15:26:11.044Z,21.38
2023-04-27T15:28:44.527Z,21.26
2023-04-27T15:31:16.584Z,21.04
2023-04-27T15:33:49.438Z,21.45
2023-04-27T15:36:22.956Z,21.75
2023-04-27T15:38:55.412Z,21.56
2023-04-27T15:41:27.632Z,21.43
2023-04-27T15:44:00.875Z,21.41
2023-04-27T15:46:32.984Z,21.26
2023-04-27T15:49:06.542Z,21.04
2023-04-27T15:51:39.536Z,21.06
2023-04-27T15:54:12.290Z,21.03
2023-04-27T15:56:45.552Z,21.06
2023-04-27T15:59:18.148Z,21.16
2023-04-27T16:01:50.952Z,21.19
2023-04-27T16:04:23.225Z,21.25
2023-04-27T16:06:55.655Z,21.18
2023-04-27T16:09:28.204Z,21.09
2023-04-27T16:12:01.910Z,20.86
2023-04-27T16:14:34.207Z,21.01
2023-04-27T16:17:07.221Z,21.02
2023-04-27T16:19:39.544Z,20.90
2023-04-27T16:22:11.778Z,21.02
2023-04-27T16:24:45.111Z,21.12
2023-04-27T16:27:18.083Z,21.20
2023-04-27T16:32:43.491Z,20.90
2023-04-27T16:35:16.698Z,20.86
2023-04-27T16:37:50.186Z,20.96
2023-04-27T16:40:22.992Z,21.08
2023-04-27T16:42:54.889Z,20.99
2023-04-27T16:45:29.430Z,20.91
2023-04-27T16:48:03.424Z,20.88
2023-04-27T16:50:36.463Z,20.92
2023-04-27T16:53:13.492Z,20.81
2023-04-27T16:55:46.434Z,20.69
2023-04-27T16:58:18.888Z,20.53
2023-04-27T17:00:50.920Z,20.44
2023-04-27T17:03:24.194Z,20.55
2023-04-27T17:05:57.059Z,20.55
2023-04-27T17:08:29.073Z,20.32
2023-04-27T17:11:02.459Z,20.08
2023-04-27T17:13:34.362Z,19.95
2023-04-27T17:16:13.712Z,19.89
2023-04-27T17:18:49.064Z,19.79
2023-04-27T17:21:23.137Z,19.67
2023-04-27T17:23:57.812Z,19.74
2023-04-27T17:26:30.723Z,19.56
2023-04-27T17:29:02.610Z,19.46
2023-04-27T17:31:35.745Z,19.42
2023-04-27T17:34:07.684Z,19.43
2023-04-27T17:36:41.110Z,19.44
2023-04-27T17:39:14.704Z,19.37
2023-04-27T17:41:47.358Z,19.10
2023-04-27T17:44:19.739Z,18.97
2023-04-27T17:46:52.230Z,18.82
2023-04-27T17:49:25.597Z,18.67
2023-04-27T17:51:57.522Z,18.58
2023-04-27T17:54:30.379Z,18.39
2023-04-27T17:57:04.202Z,18.26
2023-04-27T17:59:37.265Z,18.30
2023-04-27T18:02:12.177Z,18.17
2023-04-27T18:04:44.318Z,18.13
2023-04-27T18:07:18.901Z,18.17
2023-04-27T18:09:51.457Z,18.14
2023-04-27T18:12:24.205Z,17.97
2023-04-27T18:14:56.202Z,17.95
2023-04-27T18:17:28.862Z,17.77
2023-04-27T18:20:09.614Z,17.77
2023-04-27T18:22:42.658Z,17.75
2023-04-27T18:25:14.613Z,17.63
2023-04-27T18:27:50.079Z,17.65
2023-04-27T18:30:22.916Z,17.55
2023-04-27T18:32:55.971Z,17.90
2023-04-27T18:35:27.938Z,17.94
2023-04-27T18:38:00.651Z,17.66
2023-04-27T18:40:36.018Z,17.58
2023-04-27T18:43:08.913Z,17.72
2023-04-27T18:45:41.260Z,17.82
2023-04-27T18:48:13.865Z,17.49
2023-04-27T18:50:46.928Z,17.51
2023-04-27T18:53:19.545Z,17.01
2023-04-27T18:55:51.499Z,17.01
2023-04-27T18:58:24.379Z,16.86
2023-04-27T19:00:56.797Z,16.99
2023-04-27T19:03:29.536Z,16.80
2023-04-27T19:06:01.572Z,16.85
2023-04-27T19:08:34.365Z,16.64
2023-04-27T19:11:06.284Z,16.61
2023-04-27T19:13:43.271Z,16.42
2023-04-27T19:16:15.473Z,16.40
2023-04-27T19:18:48.045Z,16.35
2023-04-27T19:21:20.016Z,16.21
2023-04-27T19:23:53.003Z,16.24
2023-04-27T19:26:25.424Z,16.10
2023-04-27T19:28:57.737Z,16.07
2023-04-27T19:31:30.326Z,16.13
2023-04-27T19:34:04.453Z,16.07
2023-04-27T19:36:37.203Z,15.99
2023-04-27T19:39:09.205Z,16.05
2023-04-27T19:41:42.238Z,16.05
2023-04-27T19:44:14.226Z,16.01
2023-04-27T19:46:47.074Z,15.98
2023-04-27T19:49:19.041Z,15.92
2023-04-27T19:51:51.561Z,15.95
2023-04-27T19:54:23.408Z,15.91
2023-04-27T19:56:56.831Z,15.96
2023-04-27T19:59:28.816Z,15.85
2023-04-27T20:02:01.699Z,15.76
2023-04-27T20:04:34.581Z,15.63
2023-04-27T20:07:07.973Z,15.80
2023-04-27T20:09:43.685Z,15.63
2023-04-27T20:12:40.226Z,15.60
2023-04-27T20:15:12.005Z,15.54
2023-04-27T20:17:46.557Z,15.54
2023-04-27T20:20:19.275Z,15.78
2023-04-27T20:22:52.397Z,15.63
2023-04-27T20:25:26.211Z,15.50
2023-04-27T20:27:58.464Z,15.34
2023-04-27T20:30:30.501Z,15.23
2023-04-27T20:33:04.193Z,15.41
2023-04-27T20:35:36.511Z,15.28
2023-04-27T20:38:08.614Z,15.53
2023-04-27T20:40:42.350Z,15.19
2023-04-27T20:43:14.651Z,15.07
2023-04-27T20:45:47.201Z,15.30
2023-04-27T20:48:19.286Z,15.20
2023-04-27T20:50:52.233Z,15.29
2023-04-27T20:53:25.882Z,15.06
2023-04-27T20:55:58.427Z,15.11
2023-04-27T20:58:30.373Z,15.22
2023-04-27T21:01:03.436Z,15.07
2023-04-27T21:03:35.743Z,15.11
2023-04-27T21:06:08.584Z,15.20
2023-04-27T21:08:40.522Z,15.13
2023-04-27T21:11:14.146Z,15.02
2023-04-27T21:13:46.948Z,14.91
2023-04-27T21:16:19.530Z,15.16
2023-04-27T21:18:51.452Z,15.09
2023-04-27T21:21:24.716Z,15.20
2023-04-27T21:24:06.572Z,15.08
2023-04-27T21:26:40.522Z,15.14
2023-04-27T21:29:12.403Z,14.88
2023-04-27T21:31:44.945Z,14.88
2023-04-27T21:34:17.300Z,14.89
2023-04-27T21:36:50.080Z,15.00
2023-04-27T21:39:22.053Z,14.90
2023-04-27T21:41:54.555Z,14.84
2023-04-27T21:44:26.481Z,14.85
2023-04-27T21:46:58.996Z,14.83
2023-04-27T21:49:30.869Z,14.86
2023-04-27T21:52:03.433Z,14.97
2023-04-27T21:54:35.513Z,14.84
2023-04-27T21:57:08.088Z,14.77
2023-04-27T21:59:40.510Z,14.92
2023-04-27T22:02:12.411Z,14.74
2023-04-27T22:04:45.644Z,14.72
2023-04-27T22:07:18.696Z,14.81
2023-04-27T22:09:51.304Z,14.63
2023-04-27T22:12:23.605Z,14.76
2023-04-27T22:14:56.259Z,14.54
2023-04-27T22:17:28.556Z,14.64
2023-04-27T22:20:01.566Z,14.52
2023-04-27T22:22:33.873Z,14.54
2023-04-27T22:25:08.217Z,14.55
2023-04-27T22:27:44.867Z,14.38
2023-04-27T22:30:17.912Z,14.42
2023-04-27T22:32:50.282Z,14.30
2023-04-27T22:35:27.077Z,14.45
2023-04-27T22:38:00.332Z,14.37
2023-04-27T22:40:32.853Z,14.36
2023-04-27T22:43:04.938Z,14.38
2023-04-27T22:45:38.812Z,14.42
2023-04-27T22:48:11.113Z,14.19
2023-04-27T22:50:43.690Z,14.22
2023-04-27T22:53:15.752Z,14.25
2023-04-27T22:55:48.863Z,14.35
2023-04-27T22:58:21.116Z,14.34
2023-04-27T23:00:53.829Z,14.30
2023-04-27T23:03:25.846Z,14.18
2023-04-27T23:06:01.063Z,14.28
2023-04-27T23:08:33.314Z,14.52
2023-04-27T23:11:05.883Z,14.29
2023-04-27T23:13:37.977Z,14.34
2023-04-27T23:16:10.558Z,14.41
2023-04-27T23:18:42.538Z,14.31
2023-04-27T23:21:15.049Z,14.40
2023-04-27T23:23:46.979Z,14.27
2023-04-27T23:26:19.566Z,14.25
2023-04-27T23:28:52.322Z,14.44
2023-04-27T23:31:24.346Z,14.32
2023-04-27T23:33:57.125Z,14.51
2023-04-27T23:36:29.418Z,14.44
2023-04-27T23:39:02.364Z,14.44
2023-04-27T23:41:34.764Z,14.35
2023-04-27T23:44:07.355Z,14.32
2023-04-27T23:46:39.639Z,14.39
2023-04-27T23:49:12.227Z,14.25
2023-04-27T23:51:44.573Z,14.53
2023-04-27T23:54:17.287Z,14.45
2023-04-27T23:56:52.476Z,14.53
2023-04-27T23:59:25.044Z,14.57
